createdAt,value
2022-12-04T00:02:54.240Z,83.63
2022-12-04T00:08:02.250Z,78.77
2022-12-04T00:13:08.043Z,80.53
2022-12-04T00:18:15.470Z,81.80
2022-12-04T00:23:23.405Z,80.73
2022-12-04T00:28:28.300Z,83.10
2022-12-04T00:33:33.261Z,90.33
2022-12-04T00:38:41.276Z,83.60
2022-12-04T00:43:46.556Z,89.60
2022-12-04T00:48:51.643Z,80.73
2022-12-04T00:53:59.352Z,86.67
2022-12-04T00:59:04.294Z,99.17
2022-12-04T01:04:09.475Z,105.23
2022-12-04T01:09:17.064Z,101.47
2022-12-04T01:14:22.162Z,107.30
2022-12-04T01:19:27.410Z,102.67
2022-12-04T01:24:35.164Z,101.97
2022-12-04T01:29:41.451Z,103.40
2022-12-04T01:34:46.472Z,102.47
2022-12-04T01:39:54.332Z,113.27
2022-12-04T01:45:30.547Z,103.23
2022-12-04T01:50:38.546Z,113.20
2022-12-04T01:55:46.964Z,120.57
2022-12-04T02:00:58.634Z,101.87
2022-12-04T02:06:05.083Z,115.93
2022-12-04T02:11:30.611Z,115.73
2022-12-04T02:16:44.697Z,111.40
2022-12-04T02:21:56.923Z,94.73
2022-12-04T02:27:11.611Z,110.90
2022-12-04T02:32:27.928Z,110.30
2022-12-04T02:37:37.457Z,108.80
2022-12-04T02:42:45.446Z,117.40
2022-12-04T02:47:56.049Z,105.27
2022-12-04T02:53:08.356Z,110.07
2022-12-04T02:58:17.730Z,100.17
2022-12-04T03:03:31.078Z,107.80
2022-12-04T03:08:40.437Z,104.67
2022-12-04T03:13:51.332Z,116.27
2022-12-04T03:19:05.105Z,108.27
2022-12-04T03:24:17.842Z,101.53
2022-12-04T03:29:25.536Z,117.33
2022-12-04T03:34:38.383Z,111.33
2022-12-04T03:39:49.957Z,107.90
2022-12-04T03:45:04.192Z,122.03
2022-12-04T03:50:19.387Z,122.53
2022-12-04T03:55:29.609Z,110.60
2022-12-04T04:00:39.458Z,113.50
2022-12-04T04:05:50.891Z,112.20
2022-12-04T04:11:03.059Z,111.93
2022-12-04T04:16:25.604Z,102.63
2022-12-04T04:21:52.635Z,103.17
2022-12-04T04:27:01.220Z,101.43
2022-12-04T04:32:13.130Z,100.17
2022-12-04T04:37:29.783Z,109.33
2022-12-04T04:42:39.082Z,116.33
2022-12-04T04:47:50.507Z,110.50
2022-12-04T04:53:05.288Z,104.63
2022-12-04T04:58:11.881Z,123.13
2022-12-04T05:03:17.083Z,105.53
2022-12-04T05:08:24.936Z,97.80
2022-12-04T05:13:31.735Z,102.93
2022-12-04T05:18:41.219Z,105.90
2022-12-04T05:23:48.974Z,107.00
2022-12-04T05:28:55.192Z,104.43
2022-12-04T05:34:00.857Z,108.80
2022-12-04T05:39:11.262Z,110.90
2022-12-04T05:44:16.998Z,108.17
2022-12-04T05:49:24.011Z,112.30
2022-12-04T05:54:31.665Z,114.07
2022-12-04T05:59:37.090Z,107.90
2022-12-04T06:04:42.084Z,116.60
2022-12-04T06:09:51.293Z,110.97
2022-12-04T06:14:56.315Z,111.70
2022-12-04T06:20:09.513Z,103.27
2022-12-04T06:25:19.713Z,100.80
2022-12-04T06:30:25.727Z,109.47
2022-12-04T06:35:30.759Z,111.53
2022-12-04T06:40:42.197Z,113.37
2022-12-04T06:45:47.253Z,117.00
2022-12-04T06:50:52.293Z,115.40
2022-12-04T06:56:01.075Z,118.83
2022-12-04T07:01:10.095Z,113.27
2022-12-04T07:06:17.173Z,117.70
2022-12-04T07:11:25.546Z,112.90
2022-12-04T07:16:35.433Z,122.10
2022-12-04T07:21:44.826Z,118.03
2022-12-04T07:26:52.312Z,121.97
2022-12-04T07:31:58.374Z,108.13
2022-12-04T07:37:03.563Z,118.67
2022-12-04T07:42:14.200Z,123.13
2022-12-04T07:47:19.274Z,111.70
2022-12-04T07:52:26.173Z,120.07
2022-12-04T07:57:33.774Z,111.13
2022-12-04T08:02:39.936Z,124.77
2022-12-04T08:07:44.962Z,114.67
2022-12-04T08:12:52.679Z,117.63
2022-12-04T08:17:58.077Z,121.23
2022-12-04T08:23:03.046Z,117.63
2022-12-04T08:28:12.049Z,107.67
2022-12-04T08:33:20.620Z,104.07
2022-12-04T08:38:25.844Z,105.57
2022-12-04T08:43:33.883Z,102.23
2022-12-04T08:48:39.227Z,104.23
2022-12-04T08:53:45.741Z,109.77
2022-12-04T08:58:53.599Z,111.47
2022-12-04T09:03:59.873Z,109.33
2022-12-04T09:09:06.901Z,105.47
2022-12-04T09:14:15.006Z,114.03
2022-12-04T09:19:20.175Z,100.27
2022-12-04T09:24:25.356Z,90.70
2022-12-04T09:29:32.954Z,95.77
2022-12-04T09:34:38.373Z,102.83
2022-12-04T09:39:43.309Z,101.53
2022-12-04T09:44:59.036Z,105.20
2022-12-04T09:50:09.883Z,111.17
2022-12-04T09:55:21.247Z,95.30
2022-12-04T10:00:30.432Z,100.70
2022-12-04T10:05:48.742Z,104.90
2022-12-04T10:11:02.912Z,91.07
2022-12-04T10:16:19.744Z,93.07
2022-12-04T10:21:39.440Z,92.40
2022-12-04T10:26:48.577Z,103.53
2022-12-04T10:32:00.346Z,102.23
2022-12-04T10:37:14.702Z,103.63
2022-12-04T10:42:30.286Z,103.73
2022-12-04T10:47:44.085Z,108.77
2022-12-04T10:52:50.460Z,101.37
2022-12-04T10:57:55.484Z,118.83
2022-12-04T11:03:05.639Z,102.80
2022-12-04T11:08:18.284Z,94.30
2022-12-04T11:13:25.105Z,96.83
2022-12-04T11:18:35.632Z,92.80
2022-12-04T11:23:46.749Z,106.00
2022-12-04T11:28:58.023Z,102.33
2022-12-04T11:34:11.029Z,97.90
2022-12-04T11:39:22.330Z,100.83
2022-12-04T11:44:29.627Z,103.50
2022-12-04T11:49:40.957Z,105.93
2022-12-04T11:55:05.119Z,103.07
2022-12-04T12:00:18.550Z,104.90
2022-12-04T12:05:57.957Z,111.07
2022-12-04T12:11:11.036Z,101.63
2022-12-04T12:16:26.923Z,107.30
2022-12-04T12:21:41.102Z,103.53
2022-12-04T12:26:55.205Z,112.40
2022-12-04T12:32:14.425Z,107.17
2022-12-04T12:37:28.743Z,106.00
2022-12-04T12:42:37.955Z,110.60
2022-12-04T12:47:48.198Z,106.00
2022-12-04T12:53:01.276Z,115.13
2022-12-04T12:58:14.498Z,109.83
2022-12-04T13:03:47.999Z,115.43
2022-12-04T13:09:06.021Z,101.63
2022-12-04T13:14:16.091Z,109.20
2022-12-04T13:19:26.101Z,101.70
2022-12-04T13:25:12.424Z,102.27
2022-12-04T13:30:22.596Z,101.77
2022-12-04T13:35:35.911Z,93.97
2022-12-04T13:40:50.341Z,104.77
2022-12-04T13:45:57.728Z,108.07
2022-12-04T13:51:29.354Z,112.50
2022-12-04T13:56:37.005Z,113.13
2022-12-04T14:01:44.995Z,109.13
2022-12-04T14:06:54.718Z,117.30
2022-12-04T14:12:05.977Z,120.37
2022-12-04T14:17:22.357Z,122.93
2022-12-04T14:22:41.959Z,126.07
2022-12-04T14:27:52.036Z,120.27
2022-12-04T14:33:06.429Z,113.27
2022-12-04T14:38:21.261Z,120.20
2022-12-04T14:43:32.986Z,119.00
2022-12-04T14:48:46.681Z,111.73
2022-12-04T14:54:00.623Z,117.43
2022-12-04T14:59:19.142Z,126.37
2022-12-04T15:04:28.430Z,134.90
2022-12-04T15:09:45.901Z,139.43
2022-12-04T15:14:54.043Z,135.77
2022-12-04T15:20:11.137Z,142.23
2022-12-04T15:25:24.042Z,141.20
2022-12-04T15:30:34.814Z,138.30
2022-12-04T15:35:44.074Z,131.00
2022-12-04T15:40:57.483Z,137.13
2022-12-04T15:46:16.131Z,128.50
2022-12-04T15:51:24.214Z,130.83
2022-12-04T15:56:29.676Z,124.00
2022-12-04T16:01:46.058Z,116.13
2022-12-04T16:06:56.530Z,116.83
2022-12-04T16:12:03.337Z,120.30
2022-12-04T16:17:13.697Z,118.70
2022-12-04T16:22:24.278Z,122.17
2022-12-04T16:27:29.608Z,110.13
2022-12-04T16:32:37.450Z,117.40
2022-12-04T16:37:42.688Z,112.93
2022-12-04T16:42:49.945Z,124.37
2022-12-04T16:47:58.638Z,116.20
2022-12-04T16:53:03.623Z,103.27
2022-12-04T16:58:09.311Z,99.63
2022-12-04T17:03:23.831Z,107.93
2022-12-04T17:08:29.783Z,98.43
2022-12-04T17:13:34.993Z,110.73
2022-12-04T17:18:42.488Z,106.73
2022-12-04T17:23:48.042Z,110.10
2022-12-04T17:28:54.048Z,106.60
2022-12-04T17:34:01.814Z,115.60
2022-12-04T17:39:08.337Z,114.33
2022-12-04T17:44:14.417Z,128.10
2022-12-04T17:49:24.453Z,114.67
2022-12-04T17:54:29.640Z,108.73
2022-12-04T17:59:34.751Z,102.67
2022-12-04T18:04:42.836Z,110.23
2022-12-04T18:09:47.837Z,114.77
2022-12-04T18:14:54.286Z,114.73
2022-12-04T18:20:05.043Z,114.80
2022-12-04T18:25:11.439Z,116.50
2022-12-04T18:30:17.036Z,130.33
2022-12-04T18:35:24.767Z,114.30
2022-12-04T18:40:30.177Z,119.17
2022-12-04T18:45:38.145Z,114.40
2022-12-04T18:50:46.444Z,111.17
2022-12-04T18:55:52.135Z,101.33
2022-12-04T19:00:58.333Z,106.90
2022-12-04T19:06:07.185Z,104.03
2022-12-04T19:11:14.944Z,99.93
2022-12-04T19:16:21.247Z,86.07
2022-12-04T19:21:29.750Z,89.10
2022-12-04T19:26:39.001Z,77.93
2022-12-04T19:31:44.959Z,76.33
2022-12-04T19:36:53.248Z,79.13
2022-12-04T19:41:58.678Z,73.27
2022-12-04T19:47:04.254Z,69.37
2022-12-04T19:52:12.496Z,74.23
2022-12-04T19:57:18.362Z,73.23
2022-12-04T20:02:24.068Z,79.97
2022-12-04T20:07:32.485Z,78.93
2022-12-04T20:12:38.063Z,74.07
2022-12-04T20:17:43.519Z,63.00
2022-12-04T20:22:51.658Z,59.10
2022-12-04T20:27:57.178Z,63.50
2022-12-04T20:33:02.756Z,56.17
2022-12-04T20:38:11.978Z,59.30
2022-12-04T20:43:17.639Z,61.57
2022-12-04T20:48:23.173Z,61.30
2022-12-04T20:53:32.745Z,63.23
2022-12-04T20:58:39.542Z,63.57
2022-12-04T21:03:45.823Z,64.97
2022-12-04T21:08:57.440Z,59.63
2022-12-04T21:14:17.029Z,58.70
2022-12-04T21:19:24.656Z,60.13
2022-12-04T21:24:37.037Z,59.03
2022-12-04T21:29:43.232Z,57.77
2022-12-04T21:34:48.143Z,65.67
2022-12-04T21:39:56.019Z,55.60
2022-12-04T21:45:01.983Z,56.17
2022-12-04T21:50:07.848Z,55.73
2022-12-04T21:55:15.518Z,52.33
2022-12-04T22:00:20.922Z,50.20
2022-12-04T22:05:25.937Z,49.27
2022-12-04T22:10:33.408Z,47.70
2022-12-04T22:15:40.782Z,44.90
2022-12-04T22:20:46.098Z,42.30
2022-12-04T22:25:53.718Z,36.80
2022-12-04T22:30:58.823Z,34.33
2022-12-04T22:36:08.237Z,31.87
2022-12-04T22:41:18.910Z,31.57
2022-12-04T22:46:24.008Z,39.50
2022-12-04T22:51:29.704Z,36.17
2022-12-04T22:56:37.526Z,39.33
2022-12-04T23:01:42.599Z,37.77
2022-12-04T23:06:47.538Z,38.80
2022-12-04T23:11:57.447Z,38.93
2022-12-04T23:17:02.467Z,35.17
2022-12-04T23:22:07.468Z,34.73
2022-12-04T23:27:15.050Z,38.23
2022-12-04T23:32:19.919Z,39.10
2022-12-04T23:37:24.810Z,37.77
2022-12-04T23:42:34.367Z,68.60
2022-12-04T23:47:39.412Z,40.03
2022-12-04T23:52:44.449Z,36.90
2022-12-04T23:57:51.950Z,39.23
